Time;durP1;ratioP1;P1;durP2;ratioP2;P2;SDS_P1;SDS_P2;PMS_P1;PMS_P2;Temp;Humidity;BMP_temperature;BMP_pressure;BME280_temperature;BME280_humidity;BME280_pressure;Samples;Min_cycle;Max_cycle;Signal;HPM_P1;HPM_P2
2022/04/09 00:00:15;;;;;;;4.00;1.30;;;9.50;99.90;;;;;;1043963;28;20045;-63
2022/04/09 00:00:45;;;;;;;5.38;1.80;;;9.50;99.90;;;;;;1043639;28;20044;-63
2022/04/09 00:01:16;;;;;;;3.23;1.47;;;9.50;99.90;;;;;;1043387;28;20029;-63
2022/04/09 00:01:47;;;;;;;5.97;1.80;;;9.50;99.90;;;;;;1043010;28;20021;-63
2022/04/09 00:02:17;;;;;;;5.43;1.97;;;9.50;99.90;;;;;;1043046;28;20009;-61
2022/04/09 00:02:48;;;;;;;4.63;1.60;;;9.50;99.90;;;;;;1042982;28;20716;-62
2022/04/09 00:03:18;;;;;;;2.63;1.30;;;9.50;99.90;;;;;;1043467;28;20445;-62
2022/04/09 00:03:49;;;;;;;5.50;1.73;;;9.50;99.90;;;;;;1043619;28;20528;-62
2022/04/09 00:04:19;;;;;;;5.33;1.87;;;9.50;99.90;;;;;;1042974;28;20089;-63
2022/04/09 00:04:50;;;;;;;4.30;1.97;;;9.50;99.90;;;;;;1039432;28;20013;-63
2022/04/09 00:05:21;;;;;;;6.03;2.00;;;9.50;99.90;;;;;;1039724;28;20116;-62
2022/04/09 00:05:51;;;;;;;4.53;2.27;;;9.60;99.90;;;;;;1039901;28;20013;-63
2022/04/09 00:06:23;;;;;;;5.10;2.00;;;9.50;99.90;;;;;;1040136;28;20290;-62
2022/04/09 00:06:53;;;;;;;4.72;1.95;;;9.50;99.90;;;;;;1039409;28;20040;-62
2022/04/09 00:07:24;;;;;;;4.20;1.80;;;9.50;99.90;;;;;;1039610;28;20017;-62
2022/04/09 00:07:55;;;;;;;6.20;2.25;;;9.50;99.90;;;;;;1039704;28;20101;-62
2022/04/09 00:08:25;;;;;;;7.13;1.70;;;9.50;99.90;;;;;;1039670;28;20021;-62
2022/04/09 00:08:56;;;;;;;8.10;3.00;;;9.50;99.90;;;;;;1037959;28;20084;-63
2022/04/09 00:09:27;;;;;;;8.43;2.33;;;9.50;99.90;;;;;;1035955;28;20101;-63
2022/04/09 00:09:57;;;;;;;4.13;2.10;;;9.50;99.90;;;;;;1037627;28;20480;-62
2022/04/09 00:10:28;;;;;;;5.63;2.57;;;9.50;99.90;;;;;;1039169;28;20010;-63
2022/04/09 00:10:58;;;;;;;5.07;1.97;;;9.40;99.90;;;;;;1035584;28;20017;-62
2022/04/09 00:11:29;;;;;;;4.50;1.80;;;9.40;99.90;;;;;;1035407;28;20014;-62
2022/04/09 00:11:59;;;;;;;4.67;1.83;;;9.40;99.90;;;;;;1035654;28;20096;-63
2022/04/09 00:12:30;;;;;;;7.20;2.37;;;9.50;99.90;;;;;;1035769;28;20612;-62
2022/04/09 00:13:01;;;;;;;5.33;1.80;;;9.40;99.90;;;;;;1039630;28;20079;-64
2022/04/09 00:13:31;;;;;;;6.80;2.80;;;9.40;99.90;;;;;;1039412;28;20100;-62
2022/04/09 00:14:02;;;;;;;8.30;2.37;;;9.40;99.90;;;;;;1039272;28;20012;-62
2022/04/09 00:14:32;;;;;;;5.90;1.70;;;9.40;99.90;;;;;;1039133;28;20010;-62
2022/04/09 00:15:04;;;;;;;7.50;2.10;;;9.40;99.90;;;;;;1039202;28;20025;-62
2022/04/09 00:15:35;;;;;;;7.47;2.15;;;9.40;99.90;;;;;;1039288;28;20017;-62
2022/04/09 00:16:05;;;;;;;5.67;2.00;;;9.40;99.90;;;;;;1039132;28;20037;-62
2022/04/09 00:16:36;;;;;;;4.70;2.03;;;9.40;99.90;;;;;;1039187;28;20096;-62
2022/04/09 00:17:09;;;;;;;6.43;1.73;;;9.40;99.90;;;;;;1039074;28;20040;-63
2022/04/09 00:17:41;;;;;;;3.75;1.60;;;9.40;99.90;;;;;;1039156;28;20016;-62
2022/04/09 00:18:16;;;;;;;7.78;2.70;;;9.40;99.90;;;;;;1039612;28;20097;-63
2022/04/09 00:18:46;;;;;;;12.38;3.30;;;9.40;99.90;;;;;;1039409;28;20028;-63
2022/04/09 00:19:17;;;;;;;5.30;1.87;;;9.40;99.90;;;;;;1039610;28;20018;-63
2022/04/09 00:19:48;;;;;;;5.87;2.20;;;9.40;99.90;;;;;;1039495;28;20024;-63
2022/04/09 00:20:19;;;;;;;4.00;1.80;;;9.40;99.90;;;;;;1039765;28;20364;-63
2022/04/09 00:20:50;;;;;;;5.40;1.90;;;9.40;99.90;;;;;;1038934;28;20443;-63
2022/04/09 00:21:21;;;;;;;5.22;1.60;;;9.40;99.90;;;;;;1039454;28;20166;-63
2022/04/09 00:21:52;;;;;;;6.37;1.97;;;9.30;99.90;;;;;;1039159;28;20021;-63
2022/04/09 00:22:22;;;;;;;5.87;2.10;;;9.30;99.90;;;;;;1039283;28;20658;-63
2022/04/09 00:22:52;;;;;;;5.13;1.90;;;9.30;99.90;;;;;;1039232;28;20118;-63
2022/04/09 00:23:23;;;;;;;5.70;2.30;;;9.30;99.90;;;;;;1039512;28;20185;-63
2022/04/09 00:23:54;;;;;;;6.90;1.93;;;9.30;99.90;;;;;;1039305;28;20361;-63
2022/04/09 00:24:24;;;;;;;6.53;2.30;;;9.30;99.90;;;;;;1039105;28;20017;-63
2022/04/09 00:24:55;;;;;;;4.87;1.80;;;9.30;99.90;;;;;;1038987;28;20029;-63
2022/04/09 00:25:25;;;;;;;5.00;1.87;;;9.30;99.90;;;;;;1039197;28;20014;-63
2022/04/09 00:25:56;;;;;;;5.00;2.00;;;9.30;99.90;;;;;;1039216;28;20444;-63
2022/04/09 00:26:26;;;;;;;6.30;2.03;;;9.30;99.90;;;;;;1039744;28;20064;-63
2022/04/09 00:26:57;;;;;;;5.17;1.83;;;9.30;99.90;;;;;;1039329;28;20053;-63
2022/04/09 00:27:28;;;;;;;4.22;1.90;;;9.30;99.90;;;;;;1039310;28;20076;-63
2022/04/09 00:27:59;;;;;;;4.67;1.90;;;9.30;99.90;;;;;;1039089;28;20041;-63
2022/04/09 00:28:29;;;;;;;4.57;1.60;;;9.30;99.90;;;;;;1039223;28;20045;-62
2022/04/09 00:29:00;;;;;;;6.10;1.53;;;9.30;99.90;;;;;;1039048;28;20045;-63
2022/04/09 00:29:30;;;;;;;4.30;1.27;;;9.30;99.90;;;;;;1039356;28;20021;-63
2022/04/09 00:30:02;;;;;;;6.97;1.90;;;9.30;99.90;;;;;;1039459;28;20021;-63
2022/04/09 00:30:33;;;;;;;5.95;1.90;;;9.30;99.90;;;;;;1039230;28;20049;-63
2022/04/09 00:31:04;;;;;;;9.23;2.30;;;9.30;99.90;;;;;;1038984;28;20025;-63
2022/04/09 00:31:34;;;;;;;6.37;1.70;;;9.30;99.90;;;;;;1039241;28;20041;-63
2022/04/09 00:32:05;;;;;;;5.33;1.70;;;9.30;99.90;;;;;;1039029;28;20024;-62
2022/04/09 00:32:36;;;;;;;3.90;1.85;;;9.30;99.90;;;;;;1035225;28;20025;-63
2022/04/09 00:33:07;;;;;;;7.17;1.47;;;9.30;99.90;;;;;;1034930;28;20021;-63
2022/04/09 00:33:38;;;;;;;6.22;2.10;;;9.30;99.90;;;;;;1031526;28;20023;-62
2022/04/09 00:34:09;;;;;;;3.83;1.70;;;9.30;99.90;;;;;;1035290;28;20088;-63
2022/04/09 00:34:39;;;;;;;4.57;1.63;;;9.40;99.90;;;;;;1039244;28;20097;-63
2022/04/09 00:35:10;;;;;;;5.57;1.90;;;9.40;99.90;;;;;;1039165;28;20018;-62
2022/04/09 00:35:40;;;;;;;6.87;2.20;;;9.40;99.90;;;;;;1039145;28;20020;-64
2022/04/09 00:36:11;;;;;;;6.10;2.33;;;9.40;99.90;;;;;;1039588;28;20009;-62
2022/04/09 00:36:41;;;;;;;7.10;2.07;;;9.40;99.90;;;;;;1039569;28;20025;-63
2022/04/09 00:37:12;;;;;;;9.77;2.77;;;9.40;99.90;;;;;;1039472;28;20013;-63
2022/04/09 00:37:45;;;;;;;6.72;2.33;;;9.40;99.90;;;;;;1039554;28;20013;-63
2022/04/09 00:38:15;;;;;;;6.82;2.00;;;9.40;99.90;;;;;;1039586;28;20013;-64
2022/04/09 00:38:46;;;;;;;3.17;1.50;;;9.40;99.90;;;;;;1039423;28;20009;-63
2022/04/09 00:39:16;;;;;;;3.67;1.53;;;9.40;99.90;;;;;;1039617;28;20112;-62
2022/04/09 00:39:47;;;;;;;3.30;1.43;;;9.40;99.90;;;;;;1039337;28;20005;-63
2022/04/09 00:40:18;;;;;;;6.40;1.77;;;9.40;99.90;;;;;;1039588;28;20026;-63
2022/04/09 00:40:49;;;;;;;6.88;1.98;;;9.40;99.90;;;;;;1039355;28;20022;-62
2022/04/09 00:41:19;;;;;;;4.67;1.27;;;9.40;99.90;;;;;;1039616;28;20018;-63
2022/04/09 00:41:50;;;;;;;4.87;1.47;;;9.40;99.90;;;;;;1039258;28;20093;-63
2022/04/09 00:42:22;;;;;;;5.78;1.92;;;9.40;99.90;;;;;;1039743;28;20044;-62
2022/04/09 00:42:53;;;;;;;3.72;1.42;;;9.40;99.90;;;;;;1038865;28;20020;-63
2022/04/09 00:43:24;;;;;;;5.80;1.90;;;9.40;99.90;;;;;;1034885;28;20072;-63
2022/04/09 00:43:54;;;;;;;6.90;2.23;;;9.40;99.90;;;;;;1030743;28;20023;-62
2022/04/09 00:44:25;;;;;;;6.13;2.10;;;9.40;99.90;;;;;;1031113;28;20019;-63
2022/04/09 00:44:55;;;;;;;5.10;2.07;;;9.40;99.90;;;;;;1030942;28;20413;-63
2022/04/09 00:45:26;;;;;;;5.97;1.73;;;9.40;99.90;;;;;;1035310;28;20484;-62
2022/04/09 00:45:57;;;;;;;4.70;1.97;;;9.40;99.90;;;;;;1039442;28;20042;-62
2022/04/09 00:46:27;;;;;;;5.43;2.20;;;9.40;99.90;;;;;;1039147;28;20021;-63
2022/04/09 00:46:58;;;;;;;7.10;1.77;;;9.40;99.90;;;;;;1039142;28;20017;-63
2022/04/09 00:47:29;;;;;;;6.10;2.07;;;9.40;99.90;;;;;;1039367;28;20480;-62
2022/04/09 00:48:00;;;;;;;7.83;1.87;;;9.40;99.90;;;;;;1038945;28;20022;-63
2022/04/09 00:48:30;;;;;;;5.20;1.70;;;9.40;99.90;;;;;;1039348;28;20022;-62
2022/04/09 00:49:01;;;;;;;4.47;1.73;;;9.40;99.90;;;;;;1039003;28;20033;-63
2022/04/09 00:49:31;;;;;;;3.37;1.37;;;9.40;99.90;;;;;;1039222;28;20068;-61
2022/04/09 00:50:07;;;;;;;5.13;2.17;;;9.40;99.90;;;;;;1039180;28;20479;-62
2022/04/09 00:50:38;;;;;;;5.00;2.20;;;9.40;99.90;;;;;;1039436;28;20088;-62
2022/04/09 00:51:09;;;;;;;6.43;1.67;;;9.40;99.90;;;;;;1042242;28;20005;-63
2022/04/09 00:51:41;;;;;;;5.72;1.98;;;9.40;99.90;;;;;;1043901;28;20043;-62
2022/04/09 00:52:14;;;;;;;6.10;1.80;;;9.40;99.90;;;;;;1042986;28;20060;-62
2022/04/09 00:52:50;;;;;;;6.90;1.95;;;9.40;99.90;;;;;;1043355;28;20147;-63
2022/04/09 00:53:21;;;;;;;5.75;1.90;;;9.30;99.90;;;;;;1043119;28;20018;-65
2022/04/09 00:53:52;;;;;;;4.85;1.75;;;9.30;99.90;;;;;;1043310;28;20617;-67
2022/04/09 00:54:25;;;;;;;5.57;1.55;;;9.30;99.90;;;;;;1043627;28;20009;-64
2022/04/09 00:54:56;;;;;;;5.85;2.05;;;9.30;99.90;;;;;;1043704;28;20009;-63
2022/04/09 00:56:21;;;;;;;9.48;2.50;;;9.30;99.90;;;;;;1043774;28;20036;-62
2022/04/09 00:56:54;;;;;;;5.53;1.90;;;9.30;99.90;;;;;;1043513;28;20536;-62
2022/04/09 00:57:26;;;;;;;5.05;1.75;;;9.30;99.90;;;;;;1043645;28;20018;-64
2022/04/09 00:57:57;;;;;;;5.65;1.90;;;9.30;99.90;;;;;;1043663;28;20022;-62
2022/04/09 00:58:30;;;;;;;5.10;1.97;;;9.30;99.90;;;;;;1043459;28;20108;-63
2022/04/09 00:59:06;;;;;;;10.27;2.55;;;9.30;99.90;;;;;;1043676;28;20478;-62
2022/04/09 00:59:41;;;;;;;4.55;1.90;;;9.30;99.90;;;;;;1043608;28;20013;-62
2022/04/09 01:00:12;;;;;;;6.10;1.77;;;9.20;99.90;;;;;;1043663;28;20383;-62
2022/04/09 01:00:43;;;;;;;3.55;2.13;;;9.30;99.90;;;;;;1043535;28;20044;-62
2022/04/09 01:01:16;;;;;;;5.63;2.03;;;9.30;99.90;;;;;;1043654;28;20019;-62
2022/04/09 01:01:48;;;;;;;5.50;1.60;;;9.20;99.90;;;;;;1043363;28;20021;-62
2022/04/09 01:02:19;;;;;;;3.60;1.52;;;9.20;99.90;;;;;;1043471;28;20010;-64
2022/04/09 01:02:49;;;;;;;5.60;1.75;;;9.30;99.90;;;;;;1043093;28;20107;-62
2022/04/09 01:03:21;;;;;;;4.57;2.13;;;9.30;99.90;;;;;;1043443;28;20087;-62
2022/04/09 01:03:52;;;;;;;5.18;1.90;;;9.30;99.90;;;;;;1043140;28;20054;-62
2022/04/09 01:04:23;;;;;;;4.53;1.70;;;9.30;99.90;;;;;;1037868;28;20068;-63
2022/04/09 01:04:55;;;;;;;3.92;1.90;;;9.30;99.90;;;;;;1034883;28;20438;-62
2022/04/09 01:05:26;;;;;;;5.95;1.77;;;9.30;99.90;;;;;;1035101;28;20025;-62
2022/04/09 01:05:57;;;;;;;3.83;1.50;;;9.30;99.90;;;;;;1036434;28;20130;-62
2022/04/09 01:06:28;;;;;;;4.82;1.90;;;9.40;99.90;;;;;;1043256;28;20092;-62
2022/04/09 01:07:00;;;;;;;5.07;1.75;;;9.40;99.90;;;;;;1035041;28;20029;-62
2022/04/09 01:07:31;;;;;;;5.00;1.80;;;9.40;99.90;;;;;;1035032;28;20056;-62
2022/04/09 01:08:04;;;;;;;5.00;1.38;;;9.40;99.90;;;;;;1035434;28;20028;-62
2022/04/09 01:08:35;;;;;;;6.65;1.83;;;9.40;99.90;;;;;;1040109;28;20018;-62
2022/04/09 01:09:08;;;;;;;5.13;1.50;;;9.40;99.90;;;;;;1039806;28;20096;-62
2022/04/09 01:09:38;;;;;;;5.22;1.60;;;9.40;99.90;;;;;;1039262;28;20069;-63
2022/04/09 01:10:09;;;;;;;3.83;1.53;;;9.40;99.90;;;;;;1038852;28;20022;-64
2022/04/09 01:10:40;;;;;;;6.20;2.00;;;9.40;99.90;;;;;;1039313;28;20532;-64
2022/04/09 01:11:14;;;;;;;7.00;2.10;;;9.40;99.90;;;;;;1038694;28;20319;-63
2022/04/09 01:11:46;;;;;;;4.88;1.77;;;9.40;99.90;;;;;;1039209;28;20018;-64
2022/04/09 01:12:16;;;;;;;3.80;1.40;;;9.30;99.90;;;;;;1039097;28;20017;-63
2022/04/09 01:12:47;;;;;;;5.10;1.77;;;9.30;99.90;;;;;;1039214;28;20033;-63
2022/04/09 01:13:19;;;;;;;6.23;2.13;;;9.30;99.90;;;;;;1039245;28;20564;-63
2022/04/09 01:13:49;;;;;;;4.35;1.65;;;9.30;99.90;;;;;;1039817;28;20417;-63
2022/04/09 01:14:20;;;;;;;3.00;1.50;;;9.30;99.90;;;;;;1039858;28;20547;-63
2022/04/09 01:14:51;;;;;;;5.10;2.23;;;9.30;99.90;;;;;;1039915;28;20148;-63
2022/04/09 01:15:21;;;;;;;4.57;1.50;;;9.30;99.90;;;;;;1039752;28;20385;-63
2022/04/09 01:15:52;;;;;;;7.33;2.07;;;9.30;99.90;;;;;;1039904;28;20013;-63
2022/04/09 01:16:24;;;;;;;7.93;2.47;;;9.30;99.90;;;;;;1040300;28;20445;-63
2022/04/09 01:16:56;;;;;;;3.80;1.45;;;9.30;99.90;;;;;;1039809;28;20647;-63
2022/04/09 01:17:26;;;;;;;4.53;1.45;;;9.30;99.90;;;;;;1039793;28;20017;-63
2022/04/09 01:18:00;;;;;;;3.40;1.60;;;9.30;99.90;;;;;;1039840;28;20022;-63
2022/04/09 01:18:33;;;;;;;4.13;1.67;;;9.30;99.90;;;;;;1039263;28;20642;-63
2022/04/09 01:19:04;;;;;;;3.65;1.23;;;9.30;99.90;;;;;;1036328;28;20022;-63
2022/04/09 01:19:34;;;;;;;4.77;1.67;;;9.30;99.90;;;;;;1036122;28;20021;-63
2022/04/09 01:20:20;;;;;;;4.07;1.23;;;9.30;99.90;;;;;;1036220;28;20253;-63
2022/04/09 01:20:56;;;;;;;5.75;1.48;;;9.30;99.90;;;;;;1035397;28;20073;-63
2022/04/09 01:21:28;;;;;;;2.95;1.35;;;9.40;99.90;;;;;;1035895;28;20093;-63
2022/04/09 01:21:59;;;;;;;3.35;1.30;;;9.40;99.90;;;;;;1031706;28;20431;-63
2022/04/09 01:22:30;;;;;;;4.32;1.60;;;9.40;99.90;;;;;;1032925;28;20010;-63
2022/04/09 01:23:00;;;;;;;3.47;1.27;;;9.40;99.90;;;;;;1035734;28;20056;-63
2022/04/09 01:23:31;;;;;;;3.13;1.47;;;9.40;99.90;;;;;;1039946;28;20095;-63
2022/04/09 01:24:04;;;;;;;6.55;2.03;;;9.40;99.90;;;;;;1040048;28;20025;-63
2022/04/09 01:24:34;;;;;;;5.70;1.73;;;9.40;99.90;;;;;;1040243;28;20017;-63
2022/04/09 01:25:05;;;;;;;3.47;1.27;;;9.40;99.90;;;;;;1041141;28;20029;-63
2022/04/09 01:25:37;;;;;;;4.23;1.57;;;9.40;99.90;;;;;;1040014;28;20763;-63
2022/04/09 01:26:08;;;;;;;5.05;1.80;;;9.40;99.90;;;;;;1039608;28;20018;-63
2022/04/09 01:26:39;;;;;;;4.33;1.50;;;9.40;99.90;;;;;;1040322;28;20025;-63
2022/04/09 01:27:10;;;;;;;5.35;2.00;;;9.40;99.90;;;;;;1039758;28;20125;-63
2022/04/09 01:27:41;;;;;;;4.57;1.73;;;9.40;99.90;;;;;;1040466;28;20017;-61
2022/04/09 01:28:12;;;;;;;2.97;1.30;;;9.40;99.90;;;;;;1039864;28;20309;-63
2022/04/09 01:28:43;;;;;;;4.40;1.30;;;9.40;99.90;;;;;;1040236;28;20017;-63
2022/04/09 01:29:14;;;;;;;2.88;1.20;;;9.40;99.90;;;;;;1040106;28;20017;-63
2022/04/09 01:29:44;;;;;;;6.87;1.57;;;9.40;99.90;;;;;;1039787;28;20053;-63
2022/04/09 01:30:16;;;;;;;6.57;1.90;;;9.40;99.90;;;;;;1039754;28;20044;-63
2022/04/09 01:30:47;;;;;;;4.32;1.58;;;9.40;99.90;;;;;;1039914;28;20018;-63
2022/04/09 01:31:18;;;;;;;3.10;1.50;;;9.40;99.90;;;;;;1039508;28;20021;-63
2022/04/09 01:31:48;;;;;;;4.10;1.20;;;9.40;99.90;;;;;;1040325;28;20025;-63
2022/04/09 01:32:19;;;;;;;4.47;1.63;;;9.40;99.90;;;;;;1040223;28;20013;-63
2022/04/09 01:32:49;;;;;;;4.53;1.60;;;9.40;99.90;;;;;;1040186;28;20017;-63
2022/04/09 01:33:21;;;;;;;4.07;1.40;;;9.40;99.90;;;;;;1040108;28;20020;-63
2022/04/09 01:33:52;;;;;;;4.45;1.55;;;9.40;99.90;;;;;;1039742;28;20022;-63
2022/04/09 01:34:23;;;;;;;4.77;1.70;;;9.40;99.90;;;;;;1040075;28;20108;-63
2022/04/09 01:34:53;;;;;;;6.23;2.17;;;9.40;99.90;;;;;;1039843;28;20060;-62
2022/04/09 01:35:24;;;;;;;2.67;1.20;;;9.40;99.90;;;;;;1039715;28;20028;-63
2022/04/09 01:35:54;;;;;;;4.73;1.60;;;9.40;99.90;;;;;;1039923;28;20529;-63
2022/04/09 01:36:25;;;;;;;3.17;1.50;;;9.40;99.90;;;;;;1035756;28;20112;-63
2022/04/09 01:36:56;;;;;;;3.70;1.63;;;9.40;99.90;;;;;;1035706;28;20021;-63
2022/04/09 01:37:26;;;;;;;3.43;1.23;;;9.40;99.90;;;;;;1035667;28;20018;-63
2022/04/09 01:37:57;;;;;;;7.97;1.63;;;9.40;99.90;;;;;;1035976;28;20482;-63
2022/04/09 01:38:27;;;;;;;5.93;1.63;;;9.40;99.90;;;;;;1039771;28;20497;-63
2022/04/09 01:38:58;;;;;;;5.63;1.77;;;9.40;99.90;;;;;;1040207;28;20533;-63
2022/04/09 01:39:28;;;;;;;3.53;1.60;;;9.40;99.90;;;;;;1040045;28;20057;-63
2022/04/09 01:39:59;;;;;;;3.93;1.80;;;9.40;99.90;;;;;;1040123;28;20033;-62
2022/04/09 01:40:30;;;;;;;5.45;1.80;;;9.40;99.90;;;;;;1040064;28;20641;-63
2022/04/09 01:41:01;;;;;;;4.60;1.60;;;9.40;99.90;;;;;;1039672;28;20428;-63
2022/04/09 01:41:32;;;;;;;7.47;1.77;;;9.40;99.90;;;;;;1039741;28;20064;-63
2022/04/09 01:42:03;;;;;;;4.07;1.60;;;9.30;99.90;;;;;;1039808;28;20025;-62
2022/04/09 01:42:36;;;;;;;5.15;1.60;;;9.40;99.90;;;;;;1039819;28;20075;-63
2022/04/09 01:43:07;;;;;;;3.33;1.33;;;9.40;99.90;;;;;;1039776;28;20056;-64
2022/04/09 01:43:40;;;;;;;4.28;1.63;;;9.40;99.90;;;;;;1035695;28;20033;-63
2022/04/09 01:44:11;;;;;;;3.47;1.40;;;9.40;99.90;;;;;;1035564;28;20092;-64
2022/04/09 01:44:41;;;;;;;4.37;1.70;;;9.40;99.90;;;;;;1036213;28;20096;-63
2022/04/09 01:45:12;;;;;;;4.17;1.47;;;9.40;99.90;;;;;;1035989;28;20022;-62
2022/04/09 01:45:43;;;;;;;3.37;1.30;;;9.40;99.90;;;;;;1035783;28;20029;-63
2022/04/09 01:46:13;;;;;;;6.23;1.40;;;9.40;99.90;;;;;;1035738;28;20025;-63
2022/04/09 01:46:44;;;;;;;5.80;1.77;;;9.40;99.90;;;;;;1035862;28;20100;-63
2022/04/09 01:47:15;;;;;;;3.78;1.52;;;9.40;99.90;;;;;;1039529;28;20026;-63
2022/04/09 01:47:45;;;;;;;4.93;1.70;;;9.40;99.90;;;;;;1040188;28;20072;-63
2022/04/09 01:48:16;;;;;;;3.00;1.23;;;9.40;99.90;;;;;;1040062;28;20017;-64
2022/04/09 01:48:47;;;;;;;7.17;2.10;;;9.40;99.90;;;;;;1040006;28;20018;-62
2022/04/09 01:49:17;;;;;;;3.97;1.57;;;9.40;99.90;;;;;;1035436;28;20583;-63
2022/04/09 01:49:48;;;;;;;4.70;1.60;;;9.40;99.90;;;;;;1035811;28;20475;-62
2022/04/09 01:50:19;;;;;;;4.67;1.87;;;9.40;99.90;;;;;;1035761;28;20017;-63
2022/04/09 01:50:49;;;;;;;4.97;1.60;;;9.40;99.90;;;;;;1040328;28;20041;-66
2022/04/09 01:51:20;;;;;;;4.07;1.67;;;9.40;99.90;;;;;;1043719;28;20122;-63
2022/04/09 01:51:51;;;;;;;4.77;1.33;;;9.40;99.90;;;;;;1043977;28;20469;-63
2022/04/09 01:52:21;;;;;;;3.13;1.30;;;9.40;99.90;;;;;;1043711;28;20017;-63
2022/04/09 01:52:55;;;;;;;4.40;1.60;;;9.40;99.90;;;;;;1039745;28;20014;-63
2022/04/09 01:53:26;;;;;;;4.60;1.75;;;9.40;99.90;;;;;;1040262;28;20092;-63
2022/04/09 01:53:56;;;;;;;2.43;1.20;;;9.40;99.90;;;;;;1044041;28;20054;-62
2022/04/09 01:54:27;;;;;;;6.63;1.73;;;9.40;99.90;;;;;;1043704;28;20017;-63
2022/04/09 01:54:57;;;;;;;7.57;2.27;;;9.40;99.90;;;;;;1044342;28;20064;-63
2022/04/09 01:55:28;;;;;;;4.90;1.30;;;9.40;99.90;;;;;;1044096;28;20132;-63
2022/04/09 01:55:59;;;;;;;2.77;1.30;;;9.40;99.90;;;;;;1044373;28;20036;-63
2022/04/09 01:56:29;;;;;;;3.23;1.43;;;9.50;99.90;;;;;;1044104;28;20743;-63
2022/04/09 01:57:00;;;;;;;4.90;1.60;;;9.50;99.90;;;;;;1043742;28;20476;-63
2022/04/09 01:57:30;;;;;;;3.53;1.63;;;9.50;99.90;;;;;;1043788;28;20500;-63
2022/04/09 01:58:01;;;;;;;4.30;1.57;;;9.50;99.90;;;;;;1039735;28;20238;-63
2022/04/09 01:58:32;;;;;;;3.13;1.60;;;9.50;99.90;;;;;;1039682;28;20022;-63
2022/04/09 01:59:02;;;;;;;5.13;1.50;;;9.50;99.90;;;;;;1039884;28;20268;-63
2022/04/09 01:59:33;;;;;;;3.57;1.57;;;9.50;99.90;;;;;;1039886;28;20022;-63
2022/04/09 02:00:07;;;;;;;2.40;1.13;;;9.50;99.90;;;;;;1043766;28;20504;-63
2022/04/09 02:00:37;;;;;;;3.72;1.20;;;9.50;99.90;;;;;;1043872;28;20044;-62
2022/04/09 02:01:08;;;;;;;4.20;1.50;;;9.50;99.90;;;;;;1044103;28;20070;-63
2022/04/09 02:01:39;;;;;;;2.50;1.30;;;9.50;99.90;;;;;;1044341;28;20100;-63
2022/04/09 02:02:10;;;;;;;4.27;1.70;;;9.50;99.90;;;;;;1043633;28;20427;-62
2022/04/09 02:02:41;;;;;;;3.28;1.40;;;9.50;99.90;;;;;;1043704;28;20449;-63
2022/04/09 02:03:12;;;;;;;4.85;1.70;;;9.50;99.90;;;;;;1039725;28;20028;-63
2022/04/09 02:03:42;;;;;;;4.40;1.50;;;9.50;99.90;;;;;;1039804;28;20033;-63
2022/04/09 02:04:14;;;;;;;4.50;1.63;;;9.50;99.90;;;;;;1039898;28;20017;-63
2022/04/09 02:04:45;;;;;;;3.97;2.22;;;9.50;99.90;;;;;;1039900;28;20109;-63
2022/04/09 02:05:17;;;;;;;4.47;1.63;;;9.50;99.90;;;;;;1039416;28;20021;-63
2022/04/09 02:05:47;;;;;;;9.85;1.58;;;9.50;99.90;;;;;;1039512;28;20012;-63
2022/04/09 02:06:18;;;;;;;3.60;1.40;;;9.50;99.90;;;;;;1043931;28;20009;-63
2022/04/09 02:06:50;;;;;;;5.47;1.43;;;9.50;99.90;;;;;;1043769;28;20017;-63
2022/04/09 02:07:22;;;;;;;3.92;1.50;;;9.50;99.90;;;;;;1043818;28;20001;-62
2022/04/09 02:07:53;;;;;;;4.40;1.65;;;9.50;99.90;;;;;;1043720;28;20009;-63
2022/04/09 02:08:24;;;;;;;4.43;1.43;;;9.50;99.90;;;;;;1043854;28;20009;-63
2022/04/09 02:08:55;;;;;;;4.03;1.43;;;9.50;99.90;;;;;;1043748;28;20044;-63
2022/04/09 02:09:25;;;;;;;3.03;1.25;;;9.50;99.90;;;;;;1044029;28;20005;-63
2022/04/09 02:09:56;;;;;;;3.87;1.23;;;9.50;99.90;;;;;;1040611;28;20013;-63
2022/04/09 02:10:28;;;;;;;2.53;1.40;;;9.50;99.90;;;;;;1035494;28;20018;-63
2022/04/09 02:10:59;;;;;;;4.72;1.48;;;9.60;99.90;;;;;;1035436;28;20014;-63
2022/04/09 02:11:29;;;;;;;3.60;1.50;;;9.60;99.90;;;;;;1036020;28;20018;-63
2022/04/09 02:12:00;;;;;;;2.63;0.87;;;9.60;99.90;;;;;;1039653;28;20037;-63
2022/04/09 02:12:32;;;;;;;2.83;1.27;;;9.60;99.90;;;;;;1040038;28;20088;-63
2022/04/09 02:13:04;;;;;;;2.33;1.13;;;9.60;99.90;;;;;;1040039;28;20017;-63
2022/04/09 02:13:34;;;;;;;2.80;1.30;;;9.60;99.90;;;;;;1039704;28;20484;-63
2022/04/09 02:14:08;;;;;;;5.00;1.73;;;9.60;99.90;;;;;;1039672;28;20539;-63
2022/04/09 02:14:38;;;;;;;5.20;1.52;;;9.60;99.90;;;;;;1039728;28;20484;-62
2022/04/09 02:15:11;;;;;;;3.03;1.30;;;9.60;99.90;;;;;;1039222;28;20041;-63
2022/04/09 02:15:41;;;;;;;2.20;0.95;;;9.60;99.90;;;;;;1039970;28;20014;-63
2022/04/09 02:16:12;;;;;;;5.50;1.70;;;9.60;99.90;;;;;;1039466;28;20017;-63
2022/04/09 02:16:42;;;;;;;4.23;1.23;;;9.60;99.90;;;;;;1040024;28;20391;-63
2022/04/09 02:17:13;;;;;;;5.07;1.40;;;9.60;99.90;;;;;;1037674;28;20024;-62
2022/04/09 02:17:44;;;;;;;5.15;1.52;;;9.60;99.90;;;;;;1035877;28;20014;-63
2022/04/09 02:18:15;;;;;;;3.33;1.40;;;9.60;99.90;;;;;;1035948;28;20053;-63
2022/04/09 02:18:46;;;;;;;4.07;1.45;;;9.60;99.90;;;;;;1035811;28;20021;-62
2022/04/09 02:19:17;;;;;;;3.73;1.43;;;9.60;99.90;;;;;;1036044;28;20025;-65
2022/04/09 02:19:48;;;;;;;3.92;1.30;;;9.60;99.90;;;;;;1035838;28;20092;-63
2022/04/09 02:20:18;;;;;;;4.70;1.73;;;9.60;99.90;;;;;;1036079;28;20020;-63
2022/04/09 02:20:52;;;;;;;5.57;1.80;;;9.60;99.90;;;;;;1036228;28;20018;-63
2022/04/09 02:21:23;;;;;;;4.00;1.40;;;9.60;99.90;;;;;;1041124;28;20032;-63
2022/04/09 02:21:53;;;;;;;2.63;1.03;;;9.60;99.90;;;;;;1040019;28;20472;-62
2022/04/09 02:22:26;;;;;;;5.80;1.80;;;9.60;99.90;;;;;;1040089;28;20504;-62
2022/04/09 02:22:57;;;;;;;5.60;1.67;;;9.50;99.90;;;;;;1040015;28;20087;-63
2022/04/09 02:23:28;;;;;;;3.17;1.77;;;9.50;99.90;;;;;;1040077;28;20120;-63
2022/04/09 02:23:59;;;;;;;3.57;1.30;;;9.50;99.90;;;;;;1039486;28;20017;-63
2022/04/09 02:24:29;;;;;;;4.20;1.60;;;9.50;99.90;;;;;;1039818;28;20345;-63
2022/04/09 02:25:00;;;;;;;7.73;2.53;;;9.50;99.90;;;;;;1039307;28;20268;-62
2022/04/09 02:25:30;;;;;;;6.70;2.70;;;9.50;99.90;;;;;;1039133;28;20017;-63
2022/04/09 02:26:01;;;;;;;4.53;1.50;;;9.50;99.90;;;;;;1039471;28;20022;-63
2022/04/09 02:26:32;;;;;;;5.27;1.60;;;9.50;99.90;;;;;;1035677;28;20118;-62
2022/04/09 02:27:03;;;;;;;3.83;1.27;;;9.40;99.90;;;;;;1039556;28;20339;-63
2022/04/09 02:27:36;;;;;;;4.90;1.53;;;9.40;99.90;;;;;;1039844;28;20707;-62
2022/04/09 02:28:07;;;;;;;3.13;1.30;;;9.40;99.90;;;;;;1039481;28;20255;-62
2022/04/09 02:28:38;;;;;;;5.03;1.83;;;9.40;99.90;;;;;;1040211;28;20029;-62
2022/04/09 02:29:09;;;;;;;5.82;1.77;;;9.40;99.90;;;;;;1039465;28;20021;-62
2022/04/09 02:29:40;;;;;;;3.65;1.63;;;9.40;99.90;;;;;;1040084;28;20024;-62
2022/04/09 02:30:11;;;;;;;5.40;1.93;;;9.40;99.90;;;;;;1039710;28;20048;-62
2022/04/09 02:30:42;;;;;;;5.25;1.60;;;9.40;99.90;;;;;;1040050;28;20021;-62
2022/04/09 02:31:12;;;;;;;4.10;1.37;;;9.40;99.90;;;;;;1039512;28;20018;-62
2022/04/09 02:31:43;;;;;;;5.57;1.60;;;9.40;99.90;;;;;;1039945;28;20128;-62
2022/04/09 02:32:14;;;;;;;3.63;1.43;;;9.30;99.90;;;;;;1039156;28;20053;-62
2022/04/09 02:32:49;;;;;;;4.63;1.63;;;9.30;99.90;;;;;;1039793;28;20083;-62
2022/04/09 02:33:20;;;;;;;2.55;1.65;;;9.30;99.90;;;;;;1039496;28;20121;-63
2022/04/09 02:33:51;;;;;;;4.20;1.40;;;9.30;99.90;;;;;;1039809;28;20025;-62
2022/04/09 02:34:21;;;;;;;4.05;1.48;;;9.30;99.90;;;;;;1035714;28;20525;-65
2022/04/09 02:34:53;;;;;;;4.00;1.67;;;9.30;99.90;;;;;;1036070;28;20505;-61
2022/04/09 02:35:25;;;;;;;2.75;1.33;;;9.20;99.90;;;;;;1035670;28;20014;-62
2022/04/09 02:35:56;;;;;;;5.28;1.23;;;9.20;99.90;;;;;;1036674;28;20022;-62
2022/04/09 02:36:27;;;;;;;4.30;1.40;;;9.20;99.90;;;;;;1039723;28;20026;-61
2022/04/09 02:36:57;;;;;;;2.92;1.30;;;9.20;99.90;;;;;;1040059;28;20077;-63
2022/04/09 02:37:28;;;;;;;4.97;1.30;;;9.20;99.90;;;;;;1039927;28;20364;-61
2022/04/09 02:37:59;;;;;;;2.97;1.20;;;9.20;99.90;;;;;;1039658;28;20425;-62
2022/04/09 02:38:30;;;;;;;3.60;1.40;;;9.20;99.90;;;;;;1039479;28;20048;-62
2022/04/09 02:39:01;;;;;;;3.17;1.60;;;9.20;99.90;;;;;;1039712;28;20014;-63
2022/04/09 02:39:32;;;;;;;3.93;1.03;;;9.20;99.90;;;;;;1039497;28;20159;-63
2022/04/09 02:40:03;;;;;;;3.63;1.65;;;9.20;99.90;;;;;;1039967;28;20028;-63
2022/04/09 02:40:34;;;;;;;2.08;1.05;;;9.20;99.90;;;;;;1039830;28;20105;-63
2022/04/09 02:41:06;;;;;;;3.30;1.20;;;9.20;99.90;;;;;;1039916;28;20014;-63
2022/04/09 02:41:37;;;;;;;4.32;1.60;;;9.20;99.90;;;;;;1039799;28;20017;-63
2022/04/09 02:42:07;;;;;;;4.60;1.40;;;9.20;99.90;;;;;;1039933;28;20101;-66
2022/04/09 02:42:39;;;;;;;3.13;1.93;;;9.20;99.90;;;;;;1039990;28;20045;-62
2022/04/09 02:43:10;;;;;;;5.07;1.77;;;9.20;99.90;;;;;;1039803;28;20017;-62
2022/04/09 02:43:41;;;;;;;2.15;1.45;;;9.20;99.90;;;;;;1039605;28;20021;-62
2022/04/09 02:44:12;;;;;;;4.07;1.40;;;9.20;99.90;;;;;;1039549;28;20060;-62
2022/04/09 02:44:43;;;;;;;8.20;1.70;;;9.20;99.90;;;;;;1039583;28;20156;-63
2022/04/09 02:45:14;;;;;;;3.17;1.30;;;9.20;99.90;;;;;;1039521;28;20026;-62